createdAt,value
2018-03-17T00:01:05.952Z,33.57
2018-03-17T00:03:32.130Z,34.57
2018-03-17T00:05:58.313Z,32.53
2018-03-17T00:08:24.520Z,26.33
2018-03-17T00:10:50.669Z,29.50
2018-03-17T00:13:16.853Z,29.97
2018-03-17T00:15:43.056Z,29.67
2018-03-17T00:18:09.275Z,30.27
2018-03-17T00:20:35.427Z,30.83
2018-03-17T00:23:01.665Z,30.67
2018-03-17T00:25:27.899Z,31.23
2018-03-17T00:27:54.059Z,29.33
2018-03-17T00:30:20.200Z,31.43
2018-03-17T00:32:46.405Z,32.80
2018-03-17T00:35:12.600Z,31.67
2018-03-17T00:37:38.811Z,32.27
2018-03-17T00:40:05.049Z,29.73
2018-03-17T00:42:31.214Z,32.43
2018-03-17T00:44:57.460Z,29.07
2018-03-17T00:47:23.630Z,24.83
2018-03-17T00:49:50.158Z,32.63
2018-03-17T00:52:16.349Z,32.33
2018-03-17T00:54:42.571Z,36.83
2018-03-17T00:57:08.724Z,31.13
2018-03-17T00:59:34.921Z,32.43
2018-03-17T01:02:01.157Z,30.87
2018-03-17T01:04:27.344Z,30.13
2018-03-17T01:06:53.563Z,27.77
2018-03-17T01:09:19.766Z,30.70
2018-03-17T01:11:45.899Z,29.57
2018-03-17T01:14:12.085Z,28.97
2018-03-17T01:16:38.334Z,27.43
2018-03-17T01:19:04.517Z,27.87
2018-03-17T01:21:30.680Z,29.53
2018-03-17T01:23:56.871Z,25.57
2018-03-17T01:26:23.099Z,28.70
2018-03-17T01:28:49.245Z,28.27
2018-03-17T01:31:15.393Z,31.97
2018-03-17T01:33:41.533Z,26.37
2018-03-17T01:36:07.726Z,25.17
2018-03-17T01:38:33.986Z,27.53
2018-03-17T01:41:00.145Z,26.57
2018-03-17T01:43:26.317Z,26.67
2018-03-17T01:45:52.509Z,27.13
2018-03-17T01:48:18.652Z,22.37
2018-03-17T01:50:44.826Z,25.00
2018-03-17T01:53:11.062Z,25.67
2018-03-17T01:55:37.303Z,26.17
2018-03-17T01:58:03.465Z,23.50
2018-03-17T02:00:29.623Z,23.97
2018-03-17T02:02:55.749Z,25.13
2018-03-17T02:05:22.010Z,19.60
2018-03-17T02:07:48.223Z,25.20
2018-03-17T02:10:14.450Z,26.17
2018-03-17T02:12:40.612Z,27.60
2018-03-17T02:15:06.805Z,26.33
2018-03-17T02:17:32.930Z,26.17
2018-03-17T02:19:59.053Z,21.73
2018-03-17T02:22:25.279Z,24.07
2018-03-17T02:24:52.784Z,25.73
2018-03-17T02:27:18.911Z,25.13
2018-03-17T02:29:45.107Z,20.20
2018-03-17T02:32:11.284Z,15.00
2018-03-17T02:34:37.532Z,24.53
2018-03-17T02:37:03.783Z,25.83
2018-03-17T02:39:29.909Z,20.53
2018-03-17T02:41:56.043Z,21.63
2018-03-17T02:44:23.242Z,24.97
2018-03-17T02:46:49.429Z,22.37
2018-03-17T02:49:15.606Z,21.77
2018-03-17T02:51:41.800Z,21.00
2018-03-17T02:54:08.002Z,19.87
2018-03-17T02:56:34.236Z,22.50
2018-03-17T02:59:00.451Z,20.00
2018-03-17T03:01:26.616Z,21.57
2018-03-17T03:03:52.802Z,22.10
2018-03-17T03:06:18.931Z,20.80
2018-03-17T03:08:45.163Z,18.37
2018-03-17T03:11:11.409Z,21.37
2018-03-17T03:13:37.605Z,22.47
2018-03-17T03:16:03.808Z,21.30
2018-03-17T03:18:29.953Z,21.43
2018-03-17T03:20:56.112Z,23.50
2018-03-17T03:23:23.247Z,21.03
2018-03-17T03:25:49.464Z,19.73
2018-03-17T03:28:16.338Z,16.90
2018-03-17T03:30:42.455Z,18.13
2018-03-17T03:33:08.589Z,19.77
2018-03-17T03:35:34.800Z,22.00
2018-03-17T03:38:01.082Z,24.40
2018-03-17T03:40:27.346Z,22.07
2018-03-17T03:42:53.552Z,19.67
2018-03-17T03:45:19.752Z,21.40
2018-03-17T03:47:45.920Z,19.10
2018-03-17T03:50:12.082Z,21.67
2018-03-17T03:52:38.249Z,17.93
2018-03-17T03:55:04.517Z,19.47
2018-03-17T03:57:30.741Z,21.63
2018-03-17T03:59:57.026Z,19.23
2018-03-17T04:02:23.188Z,19.67
2018-03-17T04:04:49.338Z,21.17
2018-03-17T04:07:15.594Z,18.90
2018-03-17T04:09:41.795Z,17.67
2018-03-17T04:12:08.009Z,15.53
2018-03-17T04:14:34.143Z,18.47
2018-03-17T04:17:00.380Z,19.83
2018-03-17T04:19:26.602Z,16.97
2018-03-17T04:21:53.890Z,18.23
2018-03-17T04:24:20.042Z,17.30
2018-03-17T04:26:46.281Z,19.70
2018-03-17T04:29:12.492Z,17.13
2018-03-17T04:31:38.658Z,19.33
2018-03-17T04:34:04.852Z,19.90
2018-03-17T04:36:31.073Z,19.30
2018-03-17T04:38:57.235Z,18.00
2018-03-17T04:41:23.581Z,15.97
2018-03-17T04:43:49.805Z,18.00
2018-03-17T04:46:16.015Z,19.07
2018-03-17T04:48:42.213Z,16.40
2018-03-17T04:51:08.422Z,17.07
2018-03-17T04:53:34.533Z,18.13
2018-03-17T04:56:00.698Z,17.13
2018-03-17T04:58:26.955Z,15.00
2018-03-17T05:00:54.658Z,17.77
2018-03-17T05:03:20.798Z,16.17
2018-03-17T05:05:46.986Z,16.70
2018-03-17T05:08:13.190Z,15.43
2018-03-17T05:10:39.316Z,17.77
2018-03-17T05:13:05.477Z,15.97
2018-03-17T05:15:31.690Z,12.87
2018-03-17T05:17:57.911Z,17.10
2018-03-17T05:20:24.059Z,13.80
2018-03-17T05:22:50.282Z,14.37
2018-03-17T05:25:16.475Z,12.00
2018-03-17T05:27:42.655Z,15.63
2018-03-17T05:30:08.807Z,16.30
2018-03-17T05:32:36.051Z,15.17
2018-03-17T05:35:02.244Z,17.63
2018-03-17T05:37:28.461Z,16.57
2018-03-17T05:39:54.644Z,15.33
2018-03-17T05:42:20.851Z,15.23
2018-03-17T05:44:47.179Z,16.60
2018-03-17T05:47:13.406Z,17.47
2018-03-17T05:49:39.568Z,14.23
2018-03-17T05:52:05.778Z,19.47
2018-03-17T05:54:31.960Z,17.87
2018-03-17T05:56:58.173Z,17.00
2018-03-17T05:59:24.336Z,15.33
2018-03-17T06:01:50.541Z,15.63
2018-03-17T06:04:16.843Z,16.50
2018-03-17T06:06:42.947Z,14.27
2018-03-17T06:09:09.153Z,20.30
2018-03-17T06:11:35.381Z,18.60
2018-03-17T06:14:01.651Z,19.23
2018-03-17T06:16:27.789Z,16.27
2018-03-17T06:18:53.987Z,19.03
2018-03-17T06:21:20.177Z,18.33
2018-03-17T06:23:46.376Z,18.57
2018-03-17T06:26:12.552Z,13.57
2018-03-17T06:28:38.783Z,20.67
2018-03-17T06:31:04.938Z,20.23
2018-03-17T06:33:31.125Z,21.73
2018-03-17T06:35:57.945Z,18.70
2018-03-17T06:38:24.116Z,18.03
2018-03-17T06:40:50.262Z,18.90
2018-03-17T06:43:16.419Z,17.67
2018-03-17T06:45:43.549Z,16.70
2018-03-17T06:48:09.802Z,16.40
2018-03-17T06:50:35.994Z,14.47
2018-03-17T06:53:02.144Z,15.47
2018-03-17T06:55:28.344Z,13.90
2018-03-17T06:57:54.650Z,13.27
2018-03-17T07:00:20.882Z,12.83
2018-03-17T07:02:47.018Z,11.10
2018-03-17T07:05:13.267Z,15.00
2018-03-17T07:07:39.488Z,12.67
2018-03-17T07:10:05.667Z,13.07
2018-03-17T07:12:31.920Z,9.17
2018-03-17T07:14:58.094Z,8.13
2018-03-17T07:17:24.332Z,12.97
2018-03-17T07:19:50.513Z,15.53
2018-03-17T07:22:16.722Z,11.73
2018-03-17T07:24:42.879Z,11.73
2018-03-17T07:27:09.109Z,10.67
2018-03-17T07:29:35.307Z,13.67
2018-03-17T07:32:01.549Z,13.60
2018-03-17T07:34:30.357Z,12.90
2018-03-17T07:36:56.521Z,11.67
2018-03-17T07:39:22.762Z,12.00
2018-03-17T07:41:49.037Z,11.57
2018-03-17T07:44:15.299Z,11.60
2018-03-17T07:46:41.508Z,7.53
2018-03-17T07:49:07.674Z,11.63
2018-03-17T07:51:33.988Z,12.67
2018-03-17T07:54:00.122Z,7.63
2018-03-17T07:56:26.221Z,10.60
2018-03-17T07:58:52.416Z,11.73
2018-03-17T08:01:18.536Z,9.90
2018-03-17T08:03:44.695Z,10.67
2018-03-17T08:06:10.913Z,16.10
2018-03-17T08:08:37.242Z,12.77
2018-03-17T08:11:03.400Z,12.40
2018-03-17T08:13:29.559Z,12.90
2018-03-17T08:15:55.682Z,10.47
2018-03-17T08:18:21.907Z,15.30
2018-03-17T08:20:48.009Z,11.53
2018-03-17T08:23:14.148Z,9.90
2018-03-17T08:25:40.339Z,11.33
2018-03-17T08:28:06.607Z,11.10
2018-03-17T08:30:32.725Z,9.33
2018-03-17T08:32:58.904Z,9.93
2018-03-17T08:35:25.068Z,12.20
2018-03-17T08:37:51.257Z,11.33
2018-03-17T08:40:17.487Z,13.00
2018-03-17T08:42:43.610Z,11.97
2018-03-17T08:45:09.715Z,9.33
2018-03-17T08:47:35.995Z,8.20
2018-03-17T08:50:02.349Z,10.53
2018-03-17T08:52:29.083Z,7.37
2018-03-17T08:54:55.333Z,8.73
2018-03-17T08:57:21.519Z,6.70
2018-03-17T08:59:48.021Z,7.17
2018-03-17T09:02:14.342Z,5.80
2018-03-17T09:04:40.667Z,7.27
2018-03-17T09:07:06.906Z,6.37
2018-03-17T09:09:33.160Z,7.37
2018-03-17T09:12:00.484Z,9.10
2018-03-17T09:14:26.850Z,7.47
2018-03-17T09:16:53.063Z,6.93
2018-03-17T09:19:19.273Z,6.37
2018-03-17T09:24:49.858Z,6.67
2018-03-17T09:27:16.967Z,8.17
2018-03-17T09:29:43.544Z,6.17
2018-03-17T09:32:09.742Z,6.93
2018-03-17T09:34:35.949Z,8.83
2018-03-17T09:37:02.294Z,9.17
2018-03-17T09:39:28.484Z,7.67
2018-03-17T09:41:54.750Z,9.10
2018-03-17T09:44:21.537Z,8.27
2018-03-17T09:46:48.153Z,5.97
2018-03-17T09:49:24.508Z,11.30
2018-03-17T09:51:51.541Z,9.00
2018-03-17T09:54:17.977Z,9.43
2018-03-17T09:56:45.017Z,6.70
2018-03-17T09:59:11.832Z,5.53
2018-03-17T10:01:39.443Z,8.60
2018-03-17T10:04:25.509Z,12.57
2018-03-17T10:06:51.981Z,9.07
2018-03-17T10:09:19.420Z,7.77
2018-03-17T10:14:49.532Z,8.00
2018-03-17T10:17:15.972Z,7.47
2018-03-17T10:22:39.863Z,12.90
2018-03-17T10:28:08.982Z,6.27
2018-03-17T10:30:35.507Z,7.17
2018-03-17T10:33:01.769Z,8.57
2018-03-17T10:35:29.097Z,8.30
2018-03-17T10:37:56.402Z,5.97
2018-03-17T10:40:23.750Z,12.00
2018-03-17T10:42:50.513Z,8.27
2018-03-17T10:45:16.751Z,7.23
2018-03-17T10:50:46.074Z,8.47
2018-03-17T10:53:13.837Z,7.57
2018-03-17T10:58:45.137Z,6.87
2018-03-17T11:01:17.348Z,7.33
2018-03-17T11:09:49.902Z,8.27
2018-03-17T11:12:17.056Z,7.90
2018-03-17T11:14:43.264Z,8.00
2018-03-17T11:17:10.708Z,7.17
2018-03-17T11:22:41.068Z,10.13
2018-03-17T11:25:07.273Z,8.27
2018-03-17T11:27:54.461Z,7.13
2018-03-17T11:33:23.934Z,8.93
2018-03-17T11:35:50.698Z,6.33
2018-03-17T11:38:16.987Z,8.80
2018-03-17T11:40:43.245Z,8.27
2018-03-17T11:43:10.400Z,9.17
2018-03-17T11:48:43.584Z,9.73
2018-03-17T11:51:10.008Z,8.43
2018-03-17T12:11:56.375Z,11.33
2018-03-17T12:14:22.631Z,10.53
2018-03-17T12:16:48.733Z,10.33
2018-03-17T12:19:14.890Z,8.03
2018-03-17T12:21:41.133Z,8.40
2018-03-17T12:24:07.284Z,10.30
2018-03-17T12:26:33.412Z,10.90
2018-03-17T12:28:59.581Z,11.13
2018-03-17T12:31:25.770Z,8.27
2018-03-17T12:33:51.877Z,7.40
2018-03-17T12:36:18.009Z,9.10
2018-03-17T12:38:44.176Z,9.00
2018-03-17T12:41:10.455Z,11.77
2018-03-17T12:43:36.641Z,10.07
2018-03-17T12:46:02.916Z,7.30
2018-03-17T12:48:29.083Z,10.03
2018-03-17T12:50:55.231Z,10.67
2018-03-17T12:53:21.367Z,10.33
2018-03-17T12:55:47.522Z,9.83
2018-03-17T12:58:13.695Z,9.80
2018-03-17T13:00:39.849Z,14.50
2018-03-17T13:03:05.945Z,10.03
2018-03-17T13:05:32.103Z,10.70
2018-03-17T13:07:59.233Z,9.90
2018-03-17T13:10:25.341Z,10.80
2018-03-17T13:12:51.479Z,9.10
2018-03-17T13:15:17.814Z,9.47
2018-03-17T13:17:43.949Z,9.70
2018-03-17T13:20:10.159Z,8.77
2018-03-17T13:22:48.426Z,9.57
2018-03-17T13:25:14.627Z,10.70
2018-03-17T13:27:53.157Z,9.73
2018-03-17T13:30:19.335Z,11.10
2018-03-17T13:32:55.564Z,9.53
2018-03-17T13:35:21.692Z,9.37
2018-03-17T13:37:47.791Z,8.53
2018-03-17T13:40:25.994Z,10.30
2018-03-17T13:42:52.101Z,10.13
2018-03-17T13:45:18.240Z,7.40
2018-03-17T13:47:44.397Z,11.37
2018-03-17T13:50:10.595Z,8.53
2018-03-17T13:52:36.736Z,10.03
2018-03-17T13:55:04.601Z,7.63
2018-03-17T14:24:56.850Z,9.73
2018-03-17T15:01:14.736Z,11.70
2018-03-17T15:37:12.907Z,9.60
2018-03-17T15:54:53.783Z,8.13
2018-03-17T15:57:34.836Z,11.53
2018-03-17T16:00:01.155Z,8.17
2018-03-17T16:08:34.204Z,7.60
2018-03-17T16:13:58.306Z,8.23
2018-03-17T16:25:32.784Z,9.07
2018-03-17T16:31:15.706Z,9.73
2018-03-17T16:36:44.310Z,11.63
2018-03-17T16:39:10.561Z,12.00
2018-03-17T16:41:36.704Z,10.47
2018-03-17T16:44:02.946Z,9.70
2018-03-17T16:46:29.200Z,11.37
2018-03-17T16:48:55.405Z,11.73
2018-03-17T16:51:21.559Z,9.73
2018-03-17T16:53:47.690Z,12.33
2018-03-17T16:56:13.871Z,10.80
2018-03-17T16:58:40.038Z,11.47
2018-03-17T17:01:06.405Z,10.23
2018-03-17T17:03:32.637Z,8.67
2018-03-17T17:05:59.195Z,9.60
2018-03-17T17:08:25.404Z,8.30
2018-03-17T17:10:51.627Z,10.03
2018-03-17T17:13:17.856Z,8.27
2018-03-17T17:15:44.050Z,8.53
2018-03-17T17:18:10.283Z,9.60
2018-03-17T17:20:36.565Z,9.13
2018-03-17T17:23:02.805Z,5.07
2018-03-17T17:25:29.080Z,13.77
2018-03-17T17:27:55.757Z,6.40
2018-03-17T17:30:23.699Z,7.87
2018-03-17T17:32:49.933Z,10.70
2018-03-17T17:35:17.053Z,9.20
2018-03-17T17:37:43.272Z,8.57
2018-03-17T17:40:09.482Z,10.33
2018-03-17T17:42:35.745Z,11.10
2018-03-17T17:45:01.925Z,9.97
2018-03-17T17:47:28.094Z,11.27
2018-03-17T17:49:54.310Z,9.03
2018-03-17T17:52:20.547Z,10.00
2018-03-17T17:54:46.754Z,7.93
2018-03-17T17:57:13.019Z,10.93
2018-03-17T17:59:39.494Z,6.27
2018-03-17T18:02:05.665Z,8.17
2018-03-17T18:04:31.899Z,8.83
2018-03-17T18:06:58.098Z,9.70
2018-03-17T18:09:24.470Z,6.80
2018-03-17T18:11:50.679Z,8.97
2018-03-17T18:14:16.882Z,8.53
2018-03-17T18:16:43.125Z,12.13
2018-03-17T18:19:09.312Z,12.93
2018-03-17T18:21:35.487Z,11.80
2018-03-17T18:24:01.703Z,13.00
2018-03-17T18:26:27.911Z,10.50
2018-03-17T18:28:54.575Z,9.23
2018-03-17T18:31:20.861Z,10.00
2018-03-17T18:33:47.047Z,10.23
2018-03-17T18:36:14.992Z,11.13
2018-03-17T18:38:43.450Z,9.87
2018-03-17T18:41:09.671Z,13.87
2018-03-17T18:43:36.903Z,9.17
2018-03-17T18:46:03.276Z,13.90
2018-03-17T18:48:29.464Z,12.00
2018-03-17T18:50:56.676Z,11.37
2018-03-17T18:53:23.017Z,9.40
2018-03-17T18:55:49.273Z,11.80
2018-03-17T18:58:15.562Z,11.40
2018-03-17T19:00:42.581Z,11.97
2018-03-17T19:03:08.831Z,9.03
2018-03-17T19:05:36.309Z,12.60
2018-03-17T19:08:02.571Z,10.37
2018-03-17T19:10:29.568Z,10.27
2018-03-17T19:12:55.765Z,10.57
2018-03-17T19:15:22.673Z,11.07
2018-03-17T19:17:48.819Z,11.17
2018-03-17T19:20:15.053Z,11.23
2018-03-17T19:22:41.208Z,9.90
2018-03-17T19:25:07.497Z,11.73
2018-03-17T19:27:33.759Z,13.90
2018-03-17T19:29:59.990Z,11.43
2018-03-17T19:32:26.228Z,12.67
2018-03-17T19:34:52.415Z,13.90
2018-03-17T19:37:19.014Z,13.53
2018-03-17T19:39:45.271Z,9.97
2018-03-17T19:42:11.459Z,13.93
2018-03-17T19:44:37.682Z,9.10
2018-03-17T19:47:03.911Z,14.43
2018-03-17T19:49:30.118Z,13.47
2018-03-17T19:51:56.361Z,10.27
2018-03-17T19:54:23.087Z,10.33
2018-03-17T19:56:49.285Z,13.97
2018-03-17T19:59:15.481Z,12.87
2018-03-17T20:01:42.248Z,12.83
2018-03-17T20:04:19.400Z,12.87
2018-03-17T20:06:46.284Z,12.83
2018-03-17T20:09:13.171Z,9.03
2018-03-17T20:11:39.421Z,11.53
2018-03-17T20:14:05.642Z,7.20
2018-03-17T20:16:31.912Z,10.70
2018-03-17T20:18:58.190Z,8.97
2018-03-17T20:21:24.484Z,12.53
2018-03-17T20:23:50.708Z,11.87
2018-03-17T20:26:17.091Z,13.40
2018-03-17T20:28:43.334Z,10.63
2018-03-17T20:31:10.108Z,10.40
2018-03-17T20:33:36.329Z,8.37
2018-03-17T20:36:03.218Z,12.57
2018-03-17T20:38:29.460Z,13.60
2018-03-17T20:40:55.671Z,7.13
2018-03-17T20:43:22.309Z,11.70
2018-03-17T20:45:49.185Z,11.23
2018-03-17T20:48:15.328Z,11.87
2018-03-17T20:50:41.503Z,13.27
2018-03-17T20:53:07.704Z,12.30
2018-03-17T20:55:33.889Z,11.70
2018-03-17T20:58:00.173Z,10.00
2018-03-17T21:00:26.384Z,10.73
2018-03-17T21:02:52.660Z,11.97
2018-03-17T21:05:18.919Z,11.47
2018-03-17T21:07:45.123Z,9.23
2018-03-17T21:10:11.385Z,7.37
2018-03-17T21:12:37.623Z,11.13
2018-03-17T21:15:03.855Z,11.53
2018-03-17T21:17:30.071Z,11.97
2018-03-17T21:19:56.295Z,11.17
2018-03-17T21:22:22.533Z,11.30
2018-03-17T21:24:48.721Z,10.70
2018-03-17T21:27:14.947Z,12.60
2018-03-17T21:29:41.134Z,9.67
2018-03-17T21:32:07.345Z,10.20
2018-03-17T21:34:33.528Z,8.53
2018-03-17T21:36:59.652Z,8.50
2018-03-17T21:39:25.836Z,11.60
2018-03-17T21:41:52.116Z,8.20
2018-03-17T21:44:18.287Z,9.80
2018-03-17T21:46:44.442Z,10.50
2018-03-17T21:49:10.664Z,10.83
2018-03-17T21:51:36.886Z,10.30
2018-03-17T21:54:03.046Z,9.80
2018-03-17T21:56:29.432Z,10.03
2018-03-17T21:58:55.661Z,10.80
2018-03-17T22:01:21.862Z,9.20
2018-03-17T22:03:48.101Z,11.67
2018-03-17T22:06:14.352Z,8.57
2018-03-17T22:08:40.613Z,9.33
2018-03-17T22:11:06.857Z,9.77
2018-03-17T22:13:32.983Z,9.70
2018-03-17T22:15:59.125Z,9.67
2018-03-17T22:18:25.342Z,8.97
2018-03-17T22:20:51.593Z,8.80
2018-03-17T22:23:17.819Z,10.10
2018-03-17T22:25:43.971Z,9.17
2018-03-17T22:28:10.231Z,10.70
2018-03-17T22:30:36.432Z,10.30
2018-03-17T22:33:02.649Z,7.77
2018-03-17T22:35:28.757Z,10.47
2018-03-17T22:37:54.942Z,7.50
2018-03-17T22:40:21.145Z,9.40
2018-03-17T22:42:47.346Z,8.30
2018-03-17T22:45:13.607Z,10.80
2018-03-17T22:47:39.802Z,6.73
2018-03-17T22:50:05.981Z,9.23
2018-03-17T22:52:32.202Z,9.07
2018-03-17T22:54:58.416Z,8.53
2018-03-17T22:57:24.654Z,8.20
2018-03-17T22:59:50.852Z,10.23
2018-03-17T23:02:17.076Z,10.17
2018-03-17T23:04:43.190Z,7.40
2018-03-17T23:07:09.418Z,9.83
2018-03-17T23:09:35.607Z,9.03
2018-03-17T23:12:01.882Z,10.83
2018-03-17T23:14:28.041Z,10.10
2018-03-17T23:16:54.229Z,9.70
2018-03-17T23:19:20.391Z,9.03
2018-03-17T23:21:46.623Z,6.10
2018-03-17T23:24:12.853Z,9.33
2018-03-17T23:26:39.040Z,10.70
2018-03-17T23:29:05.300Z,7.57
2018-03-17T23:31:31.592Z,8.30
2018-03-17T23:33:57.851Z,9.63
2018-03-17T23:36:24.062Z,7.43
2018-03-17T23:38:50.254Z,9.07
2018-03-17T23:41:16.524Z,10.03
2018-03-17T23:43:42.811Z,8.97
2018-03-17T23:46:09.112Z,6.83
2018-03-17T23:48:35.343Z,10.63
2018-03-17T23:51:01.576Z,7.63
2018-03-17T23:53:27.788Z,6.30
2018-03-17T23:55:54.027Z,9.17
2018-03-17T23:58:20.295Z,6.63
